sensor_id;sensor_type;location;lat;lon;timestamp;P1;durP1;ratioP1;P2;durP2;ratioP2
52434;SDS011;38354;52.892;6.148;2024-01-11T04:01:14;55.05;;;22.88;;
52434;SDS011;38354;52.892;6.148;2024-01-11T04:03:41;59.50;;;22.65;;
52434;SDS011;38354;52.892;6.148;2024-01-11T04:06:07;61.03;;;22.85;;
52434;SDS011;38354;52.892;6.148;2024-01-11T04:08:33;57.05;;;23.35;;
52434;SDS011;38354;52.892;6.148;2024-01-11T04:11:01;56.35;;;22.15;;
52434;SDS011;38354;52.892;6.148;2024-01-11T04:13:28;61.50;;;23.13;;
52434;SDS011;38354;52.892;6.148;2024-01-11T04:15:53;65.55;;;25.13;;
52434;SDS011;38354;52.892;6.148;2024-01-11T04:18:19;59.75;;;23.92;;
52434;SDS011;38354;52.892;6.148;2024-01-11T04:20:44;63.63;;;23.73;;
52434;SDS011;38354;52.892;6.148;2024-01-11T04:23:10;65.10;;;24.85;;
52434;SDS011;38354;52.892;6.148;2024-01-11T04:25:36;64.30;;;23.85;;
52434;SDS011;38354;52.892;6.148;2024-01-11T04:28:01;59.05;;;23.30;;
52434;SDS011;38354;52.892;6.148;2024-01-11T04:30:27;65.50;;;24.05;;
52434;SDS011;38354;52.892;6.148;2024-01-11T04:32:53;65.28;;;25.83;;
52434;SDS011;38354;52.892;6.148;2024-01-11T04:35:18;58.97;;;24.05;;
52434;SDS011;38354;52.892;6.148;2024-01-11T04:37:44;63.33;;;25.10;;
52434;SDS011;38354;52.892;6.148;2024-01-11T04:40:09;56.70;;;23.25;;
52434;SDS011;38354;52.892;6.148;2024-01-11T04:42:35;59.35;;;22.45;;
52434;SDS011;38354;52.892;6.148;2024-01-11T04:45:01;65.05;;;24.50;;
52434;SDS011;38354;52.892;6.148;2024-01-11T04:47:27;65.18;;;24.20;;
52434;SDS011;38354;52.892;6.148;2024-01-11T04:49:52;67.00;;;24.30;;
52434;SDS011;38354;52.892;6.148;2024-01-11T04:52:18;62.63;;;22.15;;
52434;SDS011;38354;52.892;6.148;2024-01-11T04:54:44;64.18;;;24.35;;
52434;SDS011;38354;52.892;6.148;2024-01-11T04:57:09;54.38;;;21.60;;
52434;SDS011;38354;52.892;6.148;2024-01-11T04:59:35;61.60;;;23.27;;
52434;SDS011;38354;52.892;6.148;2024-01-11T05:02:01;52.40;;;21.70;;
52434;SDS011;38354;52.892;6.148;2024-01-11T05:04:26;61.13;;;23.58;;
52434;SDS011;38354;52.892;6.148;2024-01-11T05:06:52;63.47;;;24.40;;
52434;SDS011;38354;52.892;6.148;2024-01-11T05:09:18;62.00;;;23.77;;
52434;SDS011;38354;52.892;6.148;2024-01-11T05:11:43;57.70;;;23.15;;
52434;SDS011;38354;52.892;6.148;2024-01-11T05:14:09;63.47;;;22.88;;
52434;SDS011;38354;52.892;6.148;2024-01-11T05:16:35;60.15;;;23.55;;
52434;SDS011;38354;52.892;6.148;2024-01-11T05:19:00;57.80;;;21.55;;
52434;SDS011;38354;52.892;6.148;2024-01-11T05:21:26;52.33;;;20.55;;
52434;SDS011;38354;52.892;6.148;2024-01-11T05:23:52;59.13;;;21.73;;
52434;SDS011;38354;52.892;6.148;2024-01-11T05:26:18;56.50;;;22.00;;
52434;SDS011;38354;52.892;6.148;2024-01-11T05:28:44;57.53;;;23.27;;
52434;SDS011;38354;52.892;6.148;2024-01-11T05:31:10;65.63;;;24.25;;
52434;SDS011;38354;52.892;6.148;2024-01-11T05:33:38;58.33;;;22.48;;
52434;SDS011;38354;52.892;6.148;2024-01-11T05:36:03;68.45;;;25.08;;
52434;SDS011;38354;52.892;6.148;2024-01-11T05:38:29;63.03;;;24.67;;
52434;SDS011;38354;52.892;6.148;2024-01-11T05:40:55;69.28;;;24.65;;
52434;SDS011;38354;52.892;6.148;2024-01-11T05:43:21;63.95;;;24.77;;
52434;SDS011;38354;52.892;6.148;2024-01-11T05:45:48;65.47;;;25.80;;
52434;SDS011;38354;52.892;6.148;2024-01-11T05:48:15;70.07;;;26.67;;
52434;SDS011;38354;52.892;6.148;2024-01-11T05:50:42;70.55;;;26.33;;
52434;SDS011;38354;52.892;6.148;2024-01-11T05:53:08;70.78;;;26.23;;
52434;SDS011;38354;52.892;6.148;2024-01-11T05:55:34;71.60;;;25.42;;
52434;SDS011;38354;52.892;6.148;2024-01-11T05:58:00;67.30;;;25.23;;
52434;SDS011;38354;52.892;6.148;2024-01-11T06:00:26;69.18;;;25.77;;
52434;SDS011;38354;52.892;6.148;2024-01-11T06:02:52;70.53;;;26.90;;
52434;SDS011;38354;52.892;6.148;2024-01-11T06:05:17;72.65;;;27.88;;
52434;SDS011;38354;52.892;6.148;2024-01-11T06:07:43;69.68;;;26.60;;
52434;SDS011;38354;52.892;6.148;2024-01-11T06:10:09;69.28;;;25.92;;
52434;SDS011;38354;52.892;6.148;2024-01-11T06:12:35;72.32;;;26.80;;
52434;SDS011;38354;52.892;6.148;2024-01-11T06:15:01;68.60;;;27.52;;
52434;SDS011;38354;52.892;6.148;2024-01-11T06:17:27;69.78;;;25.52;;
52434;SDS011;38354;52.892;6.148;2024-01-11T06:19:53;75.13;;;27.25;;
52434;SDS011;38354;52.892;6.148;2024-01-11T06:22:20;64.50;;;25.27;;
52434;SDS011;38354;52.892;6.148;2024-01-11T06:24:45;71.03;;;27.00;;
52434;SDS011;38354;52.892;6.148;2024-01-11T06:27:11;70.18;;;26.83;;
52434;SDS011;38354;52.892;6.148;2024-01-11T06:29:37;69.10;;;25.77;;
52434;SDS011;38354;52.892;6.148;2024-01-11T06:32:03;70.22;;;25.65;;
52434;SDS011;38354;52.892;6.148;2024-01-11T06:34:29;69.72;;;27.02;;
52434;SDS011;38354;52.892;6.148;2024-01-11T06:36:55;64.53;;;26.38;;
52434;SDS011;38354;52.892;6.148;2024-01-11T06:39:21;68.60;;;26.90;;
52434;SDS011;38354;52.892;6.148;2024-01-11T06:41:47;71.15;;;26.35;;
52434;SDS011;38354;52.892;6.148;2024-01-11T06:44:12;65.75;;;25.88;;
52434;SDS011;38354;52.892;6.148;2024-01-11T06:46:38;65.35;;;26.88;;
52434;SDS011;38354;52.892;6.148;2024-01-11T06:49:07;69.25;;;26.73;;
52434;SDS011;38354;52.892;6.148;2024-01-11T06:51:33;68.72;;;26.83;;
52434;SDS011;38354;52.892;6.148;2024-01-11T06:53:59;71.20;;;27.60;;
52434;SDS011;38354;52.892;6.148;2024-01-11T06:56:26;67.75;;;26.77;;
52434;SDS011;38354;52.892;6.148;2024-01-11T06:58:52;70.75;;;27.45;;
52434;SDS011;38354;52.892;6.148;2024-01-11T07:01:20;67.32;;;26.67;;
52434;SDS011;38354;52.892;6.148;2024-01-11T07:03:46;71.10;;;26.33;;
52434;SDS011;38354;52.892;6.148;2024-01-11T07:06:12;66.45;;;26.92;;
52434;SDS011;38354;52.892;6.148;2024-01-11T07:08:37;65.55;;;26.10;;
52434;SDS011;38354;52.892;6.148;2024-01-11T07:11:03;64.35;;;24.65;;
52434;SDS011;38354;52.892;6.148;2024-01-11T07:13:29;70.63;;;27.73;;
52434;SDS011;38354;52.892;6.148;2024-01-11T07:15:57;69.93;;;28.00;;
52434;SDS011;38354;52.892;6.148;2024-01-11T07:18:23;69.50;;;27.85;;
52434;SDS011;38354;52.892;6.148;2024-01-11T07:20:50;69.43;;;28.08;;
52434;SDS011;38354;52.892;6.148;2024-01-11T07:23:16;80.25;;;29.25;;
52434;SDS011;38354;52.892;6.148;2024-01-11T07:25:42;73.38;;;29.25;;
52434;SDS011;38354;52.892;6.148;2024-01-11T07:28:08;80.68;;;31.98;;
52434;SDS011;38354;52.892;6.148;2024-01-11T07:30:34;71.53;;;28.90;;
52434;SDS011;38354;52.892;6.148;2024-01-11T07:32:59;64.07;;;26.80;;
52434;SDS011;38354;52.892;6.148;2024-01-11T07:35:25;71.55;;;28.27;;
52434;SDS011;38354;52.892;6.148;2024-01-11T07:37:51;69.97;;;28.50;;
52434;SDS011;38354;52.892;6.148;2024-01-11T07:40:17;72.22;;;27.42;;
52434;SDS011;38354;52.892;6.148;2024-01-11T07:42:42;70.80;;;30.38;;
52434;SDS011;38354;52.892;6.148;2024-01-11T07:45:09;83.07;;;30.63;;
52434;SDS011;38354;52.892;6.148;2024-01-11T07:47:39;77.57;;;29.80;;
52434;SDS011;38354;52.892;6.148;2024-01-11T07:50:05;75.90;;;30.73;;
52434;SDS011;38354;52.892;6.148;2024-01-11T07:52:35;76.95;;;29.40;;
52434;SDS011;38354;52.892;6.148;2024-01-11T07:55:02;69.00;;;28.65;;
52434;SDS011;38354;52.892;6.148;2024-01-11T07:57:35;63.33;;;26.70;;
52434;SDS011;38354;52.892;6.148;2024-01-11T08:00:02;77.50;;;29.63;;
52434;SDS011;38354;52.892;6.148;2024-01-11T08:02:31;74.90;;;28.90;;
52434;SDS011;38354;52.892;6.148;2024-01-11T08:04:58;69.82;;;28.90;;
52434;SDS011;38354;52.892;6.148;2024-01-11T08:07:25;78.18;;;29.77;;
52434;SDS011;38354;52.892;6.148;2024-01-11T08:09:51;77.10;;;31.38;;
52434;SDS011;38354;52.892;6.148;2024-01-11T08:12:17;72.20;;;29.67;;
52434;SDS011;38354;52.892;6.148;2024-01-11T08:14:43;75.72;;;29.27;;
52434;SDS011;38354;52.892;6.148;2024-01-11T08:17:10;67.68;;;26.23;;
52434;SDS011;38354;52.892;6.148;2024-01-11T08:19:35;72.47;;;27.35;;
52434;SDS011;38354;52.892;6.148;2024-01-11T08:22:01;74.88;;;28.98;;
52434;SDS011;38354;52.892;6.148;2024-01-11T08:24:27;71.60;;;27.80;;
52434;SDS011;38354;52.892;6.148;2024-01-11T08:26:53;72.22;;;28.55;;
52434;SDS011;38354;52.892;6.148;2024-01-11T08:29:19;67.65;;;26.92;;
52434;SDS011;38354;52.892;6.148;2024-01-11T08:31:48;72.60;;;27.33;;
52434;SDS011;38354;52.892;6.148;2024-01-11T08:34:14;71.18;;;29.10;;
52434;SDS011;38354;52.892;6.148;2024-01-11T08:36:39;70.28;;;26.92;;
52434;SDS011;38354;52.892;6.148;2024-01-11T08:39:05;67.43;;;27.45;;
52434;SDS011;38354;52.892;6.148;2024-01-11T08:41:32;72.75;;;29.50;;
52434;SDS011;38354;52.892;6.148;2024-01-11T08:43:58;68.68;;;28.50;;
52434;SDS011;38354;52.892;6.148;2024-01-11T08:46:25;70.82;;;27.15;;
52434;SDS011;38354;52.892;6.148;2024-01-11T08:48:55;68.32;;;27.80;;
52434;SDS011;38354;52.892;6.148;2024-01-11T08:51:21;76.00;;;28.25;;
52434;SDS011;38354;52.892;6.148;2024-01-11T08:53:47;66.03;;;27.17;;
52434;SDS011;38354;52.892;6.148;2024-01-11T08:56:13;68.68;;;27.27;;
52434;SDS011;38354;52.892;6.148;2024-01-11T08:58:41;68.90;;;28.25;;
52434;SDS011;38354;52.892;6.148;2024-01-11T09:01:06;65.90;;;26.27;;
52434;SDS011;38354;52.892;6.148;2024-01-11T09:03:36;66.10;;;28.42;;
52434;SDS011;38354;52.892;6.148;2024-01-11T09:06:04;65.90;;;27.08;;
52434;SDS011;38354;52.892;6.148;2024-01-11T09:11:13;71.05;;;26.25;;
52434;SDS011;38354;52.892;6.148;2024-01-11T09:13:40;65.22;;;27.38;;
52434;SDS011;38354;52.892;6.148;2024-01-11T09:16:06;64.22;;;26.25;;
52434;SDS011;38354;52.892;6.148;2024-01-11T09:18:32;79.70;;;30.80;;
52434;SDS011;38354;52.892;6.148;2024-01-11T09:24:06;65.80;;;26.23;;
52434;SDS011;38354;52.892;6.148;2024-01-11T09:38:03;64.22;;;26.90;;
52434;SDS011;38354;52.892;6.148;2024-01-11T13:28:32;54.40;;;21.80;;
52434;SDS011;38354;52.892;6.148;2024-01-11T13:32:05;53.80;;;22.45;;
52434;SDS011;38354;52.892;6.148;2024-01-11T13:49:11;48.05;;;19.27;;
52434;SDS011;38354;52.892;6.148;2024-01-11T13:52:46;50.80;;;20.40;;
52434;SDS011;38354;52.892;6.148;2024-01-11T14:48:20;60.40;;;24.92;;
52434;SDS011;38354;52.892;6.148;2024-01-11T14:50:50;53.35;;;21.27;;
52434;SDS011;38354;52.892;6.148;2024-01-11T14:53:15;44.40;;;19.02;;
52434;SDS011;38354;52.892;6.148;2024-01-11T14:55:41;49.20;;;19.92;;
52434;SDS011;38354;52.892;6.148;2024-01-11T14:58:07;47.10;;;18.50;;
52434;SDS011;38354;52.892;6.148;2024-01-11T15:00:34;42.95;;;17.75;;
52434;SDS011;38354;52.892;6.148;2024-01-11T15:03:00;47.10;;;18.45;;
52434;SDS011;38354;52.892;6.148;2024-01-11T15:05:31;59.45;;;24.05;;
52434;SDS011;38354;52.892;6.148;2024-01-11T15:08:04;65.68;;;27.15;;
52434;SDS011;38354;52.892;6.148;2024-01-11T15:10:30;60.63;;;22.52;;
52434;SDS011;38354;52.892;6.148;2024-01-11T15:12:55;49.85;;;19.80;;
52434;SDS011;38354;52.892;6.148;2024-01-11T15:15:21;43.70;;;18.35;;
52434;SDS011;38354;52.892;6.148;2024-01-11T15:17:47;47.90;;;19.75;;
52434;SDS011;38354;52.892;6.148;2024-01-11T15:20:13;51.20;;;19.02;;
52434;SDS011;38354;52.892;6.148;2024-01-11T15:22:38;45.13;;;18.77;;
52434;SDS011;38354;52.892;6.148;2024-01-11T15:25:04;50.22;;;18.80;;
52434;SDS011;38354;52.892;6.148;2024-01-11T15:27:30;48.55;;;18.92;;
52434;SDS011;38354;52.892;6.148;2024-01-11T15:29:57;49.25;;;19.83;;
52434;SDS011;38354;52.892;6.148;2024-01-11T15:32:22;48.38;;;18.70;;
52434;SDS011;38354;52.892;6.148;2024-01-11T15:34:48;42.33;;;16.92;;
52434;SDS011;38354;52.892;6.148;2024-01-11T15:37:14;48.25;;;19.50;;
52434;SDS011;38354;52.892;6.148;2024-01-11T15:39:39;49.92;;;19.23;;
52434;SDS011;38354;52.892;6.148;2024-01-11T15:42:05;43.70;;;17.95;;
52434;SDS011;38354;52.892;6.148;2024-01-11T15:44:31;50.65;;;20.45;;
52434;SDS011;38354;52.892;6.148;2024-01-11T15:46:59;52.85;;;20.35;;
52434;SDS011;38354;52.892;6.148;2024-01-11T15:49:25;49.25;;;20.45;;
52434;SDS011;38354;52.892;6.148;2024-01-11T15:51:51;49.28;;;20.35;;
52434;SDS011;38354;52.892;6.148;2024-01-11T15:54:17;51.42;;;21.15;;
52434;SDS011;38354;52.892;6.148;2024-01-11T15:56:45;50.95;;;20.75;;
52434;SDS011;38354;52.892;6.148;2024-01-11T15:59:11;55.22;;;20.45;;
52434;SDS011;38354;52.892;6.148;2024-01-11T16:01:36;49.75;;;20.35;;
52434;SDS011;38354;52.892;6.148;2024-01-11T16:04:03;47.75;;;19.35;;
52434;SDS011;38354;52.892;6.148;2024-01-11T16:06:29;57.80;;;20.85;;
52434;SDS011;38354;52.892;6.148;2024-01-11T16:08:56;50.70;;;19.42;;
52434;SDS011;38354;52.892;6.148;2024-01-11T16:11:21;51.45;;;21.42;;
52434;SDS011;38354;52.892;6.148;2024-01-11T16:13:47;57.08;;;20.73;;
52434;SDS011;38354;52.892;6.148;2024-01-11T16:16:14;57.40;;;21.75;;
52434;SDS011;38354;52.892;6.148;2024-01-11T16:18:39;57.60;;;21.00;;
52434;SDS011;38354;52.892;6.148;2024-01-11T16:21:05;51.45;;;21.48;;
52434;SDS011;38354;52.892;6.148;2024-01-11T16:23:32;50.83;;;20.27;;
52434;SDS011;38354;52.892;6.148;2024-01-11T16:25:58;50.45;;;20.10;;
52434;SDS011;38354;52.892;6.148;2024-01-11T16:28:25;52.33;;;20.30;;
52434;SDS011;38354;52.892;6.148;2024-01-11T16:30:51;54.30;;;21.02;;
52434;SDS011;38354;52.892;6.148;2024-01-11T16:33:18;55.85;;;21.80;;
52434;SDS011;38354;52.892;6.148;2024-01-11T16:35:44;57.65;;;20.83;;
52434;SDS011;38354;52.892;6.148;2024-01-11T16:38:12;53.97;;;19.42;;
52434;SDS011;38354;52.892;6.148;2024-01-11T16:40:39;56.30;;;20.15;;
52434;SDS011;38354;52.892;6.148;2024-01-11T16:43:05;55.53;;;21.25;;
52434;SDS011;38354;52.892;6.148;2024-01-11T16:45:35;57.47;;;21.33;;
52434;SDS011;38354;52.892;6.148;2024-01-11T16:48:01;58.42;;;20.77;;
52434;SDS011;38354;52.892;6.148;2024-01-11T16:50:31;54.00;;;21.17;;
52434;SDS011;38354;52.892;6.148;2024-01-11T16:52:57;55.20;;;22.15;;
52434;SDS011;38354;52.892;6.148;2024-01-11T16:55:23;62.75;;;24.20;;
52434;SDS011;38354;52.892;6.148;2024-01-11T16:57:49;65.10;;;24.50;;
52434;SDS011;38354;52.892;6.148;2024-01-11T17:00:14;69.95;;;25.00;;
52434;SDS011;38354;52.892;6.148;2024-01-11T17:02:42;55.05;;;22.80;;
52434;SDS011;38354;52.892;6.148;2024-01-11T17:05:07;66.60;;;25.80;;
52434;SDS011;38354;52.892;6.148;2024-01-11T17:07:33;68.25;;;26.05;;
52434;SDS011;38354;52.892;6.148;2024-01-11T17:09:59;62.60;;;23.55;;
52434;SDS011;38354;52.892;6.148;2024-01-11T17:12:24;55.92;;;21.88;;
52434;SDS011;38354;52.892;6.148;2024-01-11T17:14:50;59.10;;;23.80;;
52434;SDS011;38354;52.892;6.148;2024-01-11T17:17:16;59.22;;;24.27;;
52434;SDS011;38354;52.892;6.148;2024-01-11T17:19:41;59.30;;;24.05;;
52434;SDS011;38354;52.892;6.148;2024-01-11T17:22:07;66.88;;;25.13;;
52434;SDS011;38354;52.892;6.148;2024-01-11T17:24:32;76.15;;;30.15;;
52434;SDS011;38354;52.892;6.148;2024-01-11T17:26:58;67.60;;;26.15;;
52434;SDS011;38354;52.892;6.148;2024-01-11T17:29:29;57.58;;;22.55;;
52434;SDS011;38354;52.892;6.148;2024-01-11T17:31:58;49.55;;;20.58;;
52434;SDS011;38354;52.892;6.148;2024-01-11T17:34:24;52.00;;;20.85;;
52434;SDS011;38354;52.892;6.148;2024-01-11T17:36:49;50.53;;;21.10;;
52434;SDS011;38354;52.892;6.148;2024-01-11T17:39:15;54.95;;;21.83;;
52434;SDS011;38354;52.892;6.148;2024-01-11T17:41:43;58.15;;;21.27;;
52434;SDS011;38354;52.892;6.148;2024-01-11T17:44:09;57.92;;;23.00;;
52434;SDS011;38354;52.892;6.148;2024-01-11T17:46:34;65.07;;;24.48;;
52434;SDS011;38354;52.892;6.148;2024-01-11T17:49:00;62.55;;;23.98;;
52434;SDS011;38354;52.892;6.148;2024-01-11T17:51:26;59.30;;;25.48;;
52434;SDS011;38354;52.892;6.148;2024-01-11T17:53:53;70.55;;;26.75;;
52434;SDS011;38354;52.892;6.148;2024-01-11T17:56:18;58.17;;;25.77;;
52434;SDS011;38354;52.892;6.148;2024-01-11T17:58:46;63.15;;;25.25;;
52434;SDS011;38354;52.892;6.148;2024-01-11T18:01:19;63.40;;;26.05;;
52434;SDS011;38354;52.892;6.148;2024-01-11T18:03:49;73.22;;;27.13;;
52434;SDS011;38354;52.892;6.148;2024-01-11T18:06:15;67.47;;;27.58;;
52434;SDS011;38354;52.892;6.148;2024-01-11T18:08:40;74.40;;;27.15;;
52434;SDS011;38354;52.892;6.148;2024-01-11T18:11:09;72.47;;;29.15;;
52434;SDS011;38354;52.892;6.148;2024-01-11T18:13:36;62.90;;;28.10;;
52434;SDS011;38354;52.892;6.148;2024-01-11T18:16:02;69.55;;;27.63;;
52434;SDS011;38354;52.892;6.148;2024-01-11T18:18:32;63.47;;;25.15;;
52434;SDS011;38354;52.892;6.148;2024-01-11T18:20:58;59.60;;;24.17;;
52434;SDS011;38354;52.892;6.148;2024-01-11T18:23:25;51.65;;;22.08;;
52434;SDS011;38354;52.892;6.148;2024-01-11T18:25:54;61.72;;;24.58;;
52434;SDS011;38354;52.892;6.148;2024-01-11T18:28:22;58.13;;;23.35;;
52434;SDS011;38354;52.892;6.148;2024-01-11T18:30:48;59.97;;;23.33;;
52434;SDS011;38354;52.892;6.148;2024-01-11T18:33:13;61.80;;;22.98;;
52434;SDS011;38354;52.892;6.148;2024-01-11T18:35:39;58.35;;;24.02;;
52434;SDS011;38354;52.892;6.148;2024-01-11T18:38:05;63.28;;;25.23;;
52434;SDS011;38354;52.892;6.148;2024-01-11T18:40:31;59.42;;;23.38;;
52434;SDS011;38354;52.892;6.148;2024-01-11T18:42:56;64.50;;;24.52;;
52434;SDS011;38354;52.892;6.148;2024-01-11T18:45:24;60.28;;;23.42;;
52434;SDS011;38354;52.892;6.148;2024-01-11T18:47:50;54.90;;;20.40;;
52434;SDS011;38354;52.892;6.148;2024-01-11T18:50:16;53.65;;;18.48;;
52434;SDS011;38354;52.892;6.148;2024-01-11T18:52:42;54.63;;;20.60;;
52434;SDS011;38354;52.892;6.148;2024-01-11T18:55:08;57.30;;;22.45;;
52434;SDS011;38354;52.892;6.148;2024-01-11T18:57:34;52.25;;;21.13;;
52434;SDS011;38354;52.892;6.148;2024-01-11T19:00:01;47.85;;;21.10;;
52434;SDS011;38354;52.892;6.148;2024-01-11T19:02:27;53.72;;;21.40;;
52434;SDS011;38354;52.892;6.148;2024-01-11T19:04:52;59.00;;;23.25;;
52434;SDS011;38354;52.892;6.148;2024-01-11T19:07:19;49.50;;;22.55;;
52434;SDS011;38354;52.892;6.148;2024-01-11T19:09:45;64.35;;;23.40;;
52434;SDS011;38354;52.892;6.148;2024-01-11T19:12:10;56.35;;;22.52;;
52434;SDS011;38354;52.892;6.148;2024-01-11T19:14:36;58.55;;;22.65;;
52434;SDS011;38354;52.892;6.148;2024-01-11T19:19:38;57.70;;;21.65;;
52434;SDS011;38354;52.892;6.148;2024-01-11T19:22:03;50.40;;;20.90;;
52434;SDS011;38354;52.892;6.148;2024-01-11T19:24:29;56.72;;;21.70;;
52434;SDS011;38354;52.892;6.148;2024-01-11T19:26:54;56.17;;;20.85;;
52434;SDS011;38354;52.892;6.148;2024-01-11T19:29:20;53.72;;;22.73;;
52434;SDS011;38354;52.892;6.148;2024-01-11T19:31:46;50.17;;;21.48;;
52434;SDS011;38354;52.892;6.148;2024-01-11T19:34:12;54.38;;;21.02;;
52434;SDS011;38354;52.892;6.148;2024-01-11T19:36:38;56.58;;;21.10;;
52434;SDS011;38354;52.892;6.148;2024-01-11T19:39:05;51.00;;;21.85;;
52434;SDS011;38354;52.892;6.148;2024-01-11T19:41:34;57.42;;;21.63;;
52434;SDS011;38354;52.892;6.148;2024-01-11T19:44:00;51.10;;;20.77;;
52434;SDS011;38354;52.892;6.148;2024-01-11T19:46:30;52.42;;;20.50;;
52434;SDS011;38354;52.892;6.148;2024-01-11T19:48:59;55.42;;;22.45;;
52434;SDS011;38354;52.892;6.148;2024-01-11T19:51:25;54.25;;;21.63;;
52434;SDS011;38354;52.892;6.148;2024-01-11T19:53:54;57.38;;;21.35;;
52434;SDS011;38354;52.892;6.148;2024-01-11T19:56:20;54.45;;;21.73;;
52434;SDS011;38354;52.892;6.148;2024-01-11T19:58:57;48.22;;;20.92;;
52434;SDS011;38354;52.892;6.148;2024-01-11T20:01:24;54.10;;;20.55;;
52434;SDS011;38354;52.892;6.148;2024-01-11T20:06:30;45.70;;;19.95;;
52434;SDS011;38354;52.892;6.148;2024-01-11T20:08:56;52.72;;;20.25;;
52434;SDS011;38354;52.892;6.148;2024-01-11T20:11:21;45.42;;;18.20;;
52434;SDS011;38354;52.892;6.148;2024-01-11T20:13:48;56.85;;;20.85;;
52434;SDS011;38354;52.892;6.148;2024-01-11T20:16:14;58.95;;;20.50;;
52434;SDS011;38354;52.892;6.148;2024-01-11T20:18:40;48.53;;;20.15;;
52434;SDS011;38354;52.892;6.148;2024-01-11T20:21:06;57.38;;;20.25;;
52434;SDS011;38354;52.892;6.148;2024-01-11T20:23:36;49.83;;;19.25;;
52434;SDS011;38354;52.892;6.148;2024-01-11T20:26:08;51.35;;;19.25;;
52434;SDS011;38354;52.892;6.148;2024-01-11T20:28:35;61.70;;;19.13;;
52434;SDS011;38354;52.892;6.148;2024-01-11T20:31:00;52.00;;;19.55;;
52434;SDS011;38354;52.892;6.148;2024-01-11T20:33:26;45.08;;;18.35;;
52434;SDS011;38354;52.892;6.148;2024-01-11T20:35:52;46.97;;;19.17;;
52434;SDS011;38354;52.892;6.148;2024-01-11T20:38:36;46.13;;;16.08;;
52434;SDS011;38354;52.892;6.148;2024-01-11T20:43:49;49.55;;;15.77;;
52434;SDS011;38354;52.892;6.148;2024-01-11T20:46:20;44.70;;;16.63;;
52434;SDS011;38354;52.892;6.148;2024-01-11T20:48:50;42.47;;;15.95;;
52434;SDS011;38354;52.892;6.148;2024-01-11T20:59:18;38.80;;;15.98;;
52434;SDS011;38354;52.892;6.148;2024-01-11T21:06:17;36.20;;;14.15;;
52434;SDS011;38354;52.892;6.148;2024-01-11T21:08:55;40.58;;;14.18;;
52434;SDS011;38354;52.892;6.148;2024-01-11T21:18:01;45.63;;;15.18;;
52434;SDS011;38354;52.892;6.148;2024-01-11T21:20:46;40.08;;;14.15;;
52434;SDS011;38354;52.892;6.148;2024-01-11T21:23:33;40.88;;;14.63;;
52434;SDS011;38354;52.892;6.148;2024-01-11T21:26:25;35.78;;;14.45;;
52434;SDS011;38354;52.892;6.148;2024-01-11T21:29:15;41.22;;;16.13;;
52434;SDS011;38354;52.892;6.148;2024-01-11T21:31:44;38.03;;;16.30;;
52434;SDS011;38354;52.892;6.148;2024-01-11T21:34:48;49.33;;;16.63;;
52434;SDS011;38354;52.892;6.148;2024-01-11T21:41:12;55.15;;;17.92;;
52434;SDS011;38354;52.892;6.148;2024-01-11T21:47:36;41.72;;;16.45;;
52434;SDS011;38354;52.892;6.148;2024-01-11T21:54:05;49.40;;;16.73;;
52434;SDS011;38354;52.892;6.148;2024-01-11T22:03:34;41.72;;;13.57;;
52434;SDS011;38354;52.892;6.148;2024-01-11T22:06:47;36.88;;;13.10;;
52434;SDS011;38354;52.892;6.148;2024-01-11T22:09:45;37.92;;;12.82;;
52434;SDS011;38354;52.892;6.148;2024-01-11T22:18:30;37.28;;;13.40;;
52434;SDS011;38354;52.892;6.148;2024-01-11T22:21:39;33.35;;;12.13;;
52434;SDS011;38354;52.892;6.148;2024-01-11T22:24:25;38.35;;;12.27;;
52434;SDS011;38354;52.892;6.148;2024-01-11T22:27:07;40.53;;;12.65;;
52434;SDS011;38354;52.892;6.148;2024-01-11T22:29:58;36.05;;;12.85;;
52434;SDS011;38354;52.892;6.148;2024-01-11T22:32:46;35.63;;;13.43;;
52434;SDS011;38354;52.892;6.148;2024-01-11T22:38:53;36.30;;;11.88;;
52434;SDS011;38354;52.892;6.148;2024-01-11T22:41:39;47.35;;;15.20;;
52434;SDS011;38354;52.892;6.148;2024-01-11T22:47:22;35.45;;;12.68;;
52434;SDS011;38354;52.892;6.148;2024-01-11T22:49:49;38.58;;;12.00;;
52434;SDS011;38354;52.892;6.148;2024-01-11T22:52:15;33.00;;;11.75;;
52434;SDS011;38354;52.892;6.148;2024-01-11T22:54:42;32.10;;;11.52;;
52434;SDS011;38354;52.892;6.148;2024-01-11T22:57:08;38.95;;;12.15;;
52434;SDS011;38354;52.892;6.148;2024-01-11T22:59:35;38.03;;;13.65;;
52434;SDS011;38354;52.892;6.148;2024-01-11T23:02:01;39.25;;;12.13;;
52434;SDS011;38354;52.892;6.148;2024-01-11T23:04:35;31.50;;;11.43;;
52434;SDS011;38354;52.892;6.148;2024-01-11T23:07:06;39.05;;;11.38;;
52434;SDS011;38354;52.892;6.148;2024-01-11T23:09:32;29.42;;;11.48;;
52434;SDS011;38354;52.892;6.148;2024-01-11T23:11:58;34.08;;;10.23;;
52434;SDS011;38354;52.892;6.148;2024-01-11T23:14:24;30.08;;;10.27;;
52434;SDS011;38354;52.892;6.148;2024-01-11T23:17:19;26.25;;;9.18;;
52434;SDS011;38354;52.892;6.148;2024-01-11T23:19:55;29.30;;;8.63;;
52434;SDS011;38354;52.892;6.148;2024-01-11T23:22:21;42.30;;;10.18;;
52434;SDS011;38354;52.892;6.148;2024-01-11T23:24:47;25.02;;;8.43;;
52434;SDS011;38354;52.892;6.148;2024-01-11T23:27:16;30.70;;;10.45;;
52434;SDS011;38354;52.892;6.148;2024-01-11T23:29:52;32.13;;;8.50;;
52434;SDS011;38354;52.892;6.148;2024-01-11T23:32:18;22.45;;;7.18;;
52434;SDS011;38354;52.892;6.148;2024-01-11T23:34:44;32.55;;;7.35;;
52434;SDS011;38354;52.892;6.148;2024-01-11T23:37:10;29.45;;;7.90;;
52434;SDS011;38354;52.892;6.148;2024-01-11T23:39:36;23.50;;;7.32;;
52434;SDS011;38354;52.892;6.148;2024-01-11T23:42:02;19.63;;;8.02;;
52434;SDS011;38354;52.892;6.148;2024-01-11T23:44:28;25.70;;;7.20;;
52434;SDS011;38354;52.892;6.148;2024-01-11T23:46:54;22.48;;;7.30;;
52434;SDS011;38354;52.892;6.148;2024-01-11T23:49:20;28.95;;;8.70;;
52434;SDS011;38354;52.892;6.148;2024-01-11T23:52:01;27.67;;;7.47;;
52434;SDS011;38354;52.892;6.148;2024-01-11T23:54:27;29.33;;;9.55;;
52434;SDS011;38354;52.892;6.148;2024-01-11T23:56:53;28.08;;;7.78;;
52434;SDS011;38354;52.892;6.148;2024-01-11T23:59:19;25.35;;;7.88;;
